Wednesday, May 25, 2016
07:12 UTC
  |  Log In   |  Register Free
Airport Search:

Ellington Airport
(KEFD)

FAA data valid effective Mar 31 2016 - May 26 2016 (unless otherwise noted).

 
 
 
 
 
 
 
 
 
 
 
 
 
 
Current Aviation Weather for KEFD

Weather Summary


The most recent METAR observation for EFD was updated at: 12:50 UTC
METAR for KEFD is not available. Closest METAR is for KHOU
KEFD  (most recent observation was updatred at 25:06 UTC)
250650Z 12008KT 10SM SCT013 BKN030 BKN250 27/25 A3002

KHOU  (6.7 nm SE)   (most recent observation was updated at 25:06 UTC)
250653Z 13007KT 10SM BKN012 BKN025 BKN250 27/24 A2999 RMK AO2 SLP159 T02670244

KLVJ  (6.8 nm NE)   (most recent observation was updated at 25:06 UTC)
250653Z AUTO 13009KT 9SM FEW016 SCT028 OVC035 27/25 A3001 RMK AO2 SLP160 T02720250

TAF for KEFD is not available.
KEFD
250400Z 2504/2610 15009KT 9999 SCT025 QNH2995INS BECMG 2505/2506 15009KT 9999 SCT015 BKN025 QNH2993INS BECMG 2512/2513 15010KT 9999 BKN015 QNH2990INS BECMG 2523/2524 15012KT 9000 -SHRA BKN025 BKN250 QNH2995INS TX29/2516Z TN23/2507Z

KHOU  (6.7 nm SE)   (most recent observation was updatred at 25:05 UTC)
250523Z 2506/2606 15008KT P6SM BKN015 BKN025 FM251600 15012KT P6SM SCT015 BKN150 FM252100 14012KT P6SM VCSH SCT025 OVC150 FM260100 15011KT P6SM SCT015 BKN150


KIAH  (24.6 nm SE)   (most recent observation was updatred at 25:05 UTC)
250523Z 2506/2612 15008KT P6SM BKN015 BKN025 FM251600 15012KT P6SM SCT015 BKN150 FM252100 14012KT P6SM VCSH SCT025 OVC150 FM260100 15011KT P6SM SCT015 BKN150 FM260600 16007KT P6SM SCT007 BKN015
GlobalAir.com is loading additional information.
 Current Weather at EFD
81.0 F° (27.0 C°)

Southeast winds at 6.9 mph
Pressure:
30.02 in
Humidity:
89%
Wind:
Southeast at 6.9 mph
Dew Point:
77.0 F° (25.0 C°)
Visibility:
10.00 mi
EFD NOAA Radar




Find All Airport Services Find A Hotel Find A Rental Car Find A Golf Course Find A Restaurant $100 Hamburger



Airport Weather Forecast for KEFD

Translated METAR for KEFD (0650 UTC)
METAR:
KEFD 250650Z 12008KT 10SM SCT013 BKN030 BKN250 27/25 A3002
Conditions at:
KEFD (Ellington, TX) observed 0650 UTC 25 May 2016
Temperature:
27°C (80.6°F)
Dewpoint:
25°C (77°F) [RH = 88.8]
Pressure:
30.02 inches Hg (1016.6 mb)
Winds:
from the ESE (120 degrees) at 9.2 mph (8 knots: 4.1 m/s)
Visibility:
10 mile(s)
Ceiling:
3,000 feet AGL
Clouds:
Scattered Clouds at 1,300 feet AGL
Broken Cloud Cover at 3,000 feet AGL
Broken Cloud Cover at 25,000 feet AGL
Remarks:

Translated TAF for KEFD (Ellington, TX) (0400 UTC)
TAF text:
KEFD 250400Z 2504/2610 15009KT 9999 SCT025 QNH2995INS BECMG 2505/2506 15009KT 9999 SCT015 BKN025 QNH2993INS BECMG 2512/2513 15010KT 9999 BKN015 QNH2990INS BECMG 2523/2524 15012KT 9000 -SHRA BKN025 BKN250 QNH2995INS TX29/2516Z TN23/2507Z
Forecast period:
Wednesday May 25 2016 04:00 UTC - Thursday May 26 2016 10:00 UTC
Forecast type:
FROM: standard forecast or significant change
Winds:
from the SSE (150 degrees) at 13.8 mph (12 knots: 6.2 m/s)
Visibility:
Ceiling:
at least 12,000 feet AGL
2,500 feet AGL
1,500 feet AGL
2,500 feet AGL
Clouds:
Scattered Clouds at 2,500 feet AGL
Scattered Clouds at 1,500 feet AGL
Broken Cloud Cover at 2,500 feet AGL
Broken Cloud Cover at 1,500 feet AGL
Broken Cloud Cover at 2,500 feet AGL
Broken Cloud Cover at 25,000 feet AGL
Weather:
Light Shower(s) Rain
FBO's on the Field
FBO Company Facility Photos Services Transportation Aviation Fuel Prices: Prices include tax
Catering Weather Repair Courtesy Rental Type 100LL JetA JetA+ MOGAS 8087
 
Signature Flight Support - EFD

This FBO has not yet been rated
FS:Independent
Last Updated: May-24
Login to update fuel prices
SS:
Contact Signature Flight Support - EFDMore FBO Information
 
Add another FBO Facility Photos Catering Weather Repair Courtesy Rental Type 100LL JetA JetA+ MOGAS 8087
Services Transportation Aviation Fuel Prices: Prices include tax


model-print
model-print
model-print
model-print